createdAt,value
2018-07-31T00:01:52.117Z,73.12
2018-07-31T00:04:20.129Z,73.50
2018-07-31T00:06:47.055Z,73.42
2018-07-31T00:09:13.960Z,73.04
2018-07-31T00:11:40.915Z,71.35
2018-07-31T00:14:07.838Z,73.75
2018-07-31T00:16:34.742Z,73.40
2018-07-31T00:19:01.693Z,74.37
2018-07-31T00:21:28.666Z,73.44
2018-07-31T00:23:55.587Z,73.22
2018-07-31T00:26:22.480Z,72.14
2018-07-31T00:28:49.426Z,71.80
2018-07-31T00:31:16.347Z,73.54
2018-07-31T00:33:43.276Z,73.19
2018-07-31T00:36:10.207Z,71.31
2018-07-31T00:38:37.124Z,72.92
2018-07-31T00:41:04.054Z,73.30
2018-07-31T00:43:31.962Z,74.41
2018-07-31T00:45:58.868Z,74.02
2018-07-31T00:48:25.844Z,74.42
2018-07-31T00:50:52.772Z,74.41
2018-07-31T00:53:19.690Z,73.79
2018-07-31T00:55:46.595Z,72.78
2018-07-31T00:58:13.523Z,74.32
2018-07-31T01:00:40.445Z,74.03
2018-07-31T01:03:07.393Z,74.01
2018-07-31T01:05:35.274Z,73.58
2018-07-31T01:08:02.296Z,74.75
2018-07-31T01:10:29.249Z,73.61
2018-07-31T01:12:56.168Z,75.08
2018-07-31T01:15:23.110Z,75.02
2018-07-31T01:17:50.009Z,76.62
2018-07-31T01:20:16.918Z,76.99
2018-07-31T01:22:43.880Z,76.14
2018-07-31T01:25:10.798Z,75.33
2018-07-31T01:27:37.749Z,72.99
2018-07-31T01:30:04.862Z,74.60
2018-07-31T01:32:31.814Z,74.87
2018-07-31T01:34:58.748Z,76.29
2018-07-31T01:37:25.681Z,76.51
2018-07-31T01:39:52.670Z,76.34
2018-07-31T01:42:19.658Z,76.62
2018-07-31T01:44:46.573Z,76.84
2018-07-31T01:47:13.531Z,75.80
2018-07-31T01:49:40.484Z,73.56
2018-07-31T01:52:07.740Z,76.36
2018-07-31T01:54:34.680Z,76.55
2018-07-31T01:57:01.592Z,76.54
2018-07-31T01:59:28.498Z,76.89
2018-07-31T02:01:55.409Z,77.07
2018-07-31T02:04:22.338Z,77.24
2018-07-31T02:06:49.261Z,77.36
2018-07-31T02:09:16.180Z,76.69
2018-07-31T02:11:43.094Z,76.35
2018-07-31T02:14:10.000Z,76.19
2018-07-31T02:16:36.924Z,75.33
2018-07-31T02:19:03.858Z,74.98
2018-07-31T02:21:30.801Z,73.82
2018-07-31T02:23:57.723Z,73.27
2018-07-31T02:26:24.618Z,74.07
2018-07-31T02:28:51.542Z,74.26
2018-07-31T02:31:18.449Z,75.82
2018-07-31T02:33:45.386Z,75.59
2018-07-31T02:36:12.300Z,76.06
2018-07-31T02:38:39.226Z,76.79
2018-07-31T02:41:06.248Z,74.37
2018-07-31T02:43:33.196Z,74.29
2018-07-31T02:46:00.158Z,75.20
2018-07-31T02:48:27.084Z,78.32
2018-07-31T02:50:54.011Z,77.49
2018-07-31T02:53:20.985Z,77.46
2018-07-31T02:55:47.933Z,77.21
2018-07-31T02:58:14.862Z,76.40
2018-07-31T03:00:41.768Z,75.57
2018-07-31T03:03:08.686Z,75.07
2018-07-31T03:05:35.618Z,76.34
2018-07-31T03:08:02.600Z,77.25
2018-07-31T03:10:29.493Z,78.66
2018-07-31T03:12:56.426Z,79.81
2018-07-31T03:15:23.336Z,79.42
2018-07-31T03:17:50.285Z,77.47
2018-07-31T03:20:17.235Z,79.56
2018-07-31T03:22:44.112Z,80.57
2018-07-31T03:25:11.034Z,80.81
2018-07-31T03:27:37.973Z,80.35
2018-07-31T03:30:04.972Z,80.11
2018-07-31T03:32:31.916Z,79.70
2018-07-31T03:34:58.847Z,79.55
2018-07-31T03:37:25.750Z,80.32
2018-07-31T03:39:52.682Z,82.48
2018-07-31T03:42:19.635Z,83.10
2018-07-31T03:44:46.676Z,83.54
2018-07-31T03:47:13.603Z,81.50
2018-07-31T03:49:42.444Z,81.34
2018-07-31T03:52:09.385Z,80.46
2018-07-31T03:54:36.362Z,79.94
2018-07-31T03:57:03.352Z,77.36
2018-07-31T03:59:31.466Z,78.65
2018-07-31T04:01:58.578Z,75.85
2018-07-31T04:04:28.740Z,75.45
2018-07-31T04:06:55.646Z,77.91
2018-07-31T04:09:22.585Z,78.45
2018-07-31T04:11:49.500Z,78.83
2018-07-31T04:14:16.450Z,78.65
2018-07-31T04:16:43.341Z,78.47
2018-07-31T04:19:10.284Z,78.14
2018-07-31T04:21:37.172Z,78.08
2018-07-31T04:24:04.060Z,77.02
2018-07-31T04:26:30.935Z,74.78
2018-07-31T04:28:57.801Z,76.82
2018-07-31T04:31:24.680Z,74.21
2018-07-31T04:33:51.605Z,72.73
2018-07-31T04:36:18.656Z,71.07
2018-07-31T04:38:45.464Z,68.55
2018-07-31T04:41:12.409Z,68.78
2018-07-31T04:43:39.257Z,66.42
2018-07-31T04:46:06.228Z,66.93
2018-07-31T04:48:33.116Z,65.90
2018-07-31T04:50:59.992Z,63.40
2018-07-31T04:53:26.934Z,63.10
2018-07-31T04:55:53.839Z,63.66
2018-07-31T04:58:20.759Z,63.95
2018-07-31T05:00:47.637Z,63.44
2018-07-31T05:03:14.520Z,63.88
2018-07-31T05:05:41.413Z,64.80
2018-07-31T05:08:08.363Z,64.01
2018-07-31T05:10:35.293Z,62.22
2018-07-31T05:13:02.421Z,67.80
2018-07-31T05:15:29.286Z,67.10
2018-07-31T05:17:56.180Z,67.60
2018-07-31T05:20:23.056Z,69.53
2018-07-31T05:22:49.978Z,68.56
2018-07-31T05:25:16.972Z,65.74
2018-07-31T05:27:43.869Z,65.06
2018-07-31T05:30:10.747Z,63.61
2018-07-31T05:32:37.872Z,64.64
2018-07-31T05:35:05.068Z,63.60
2018-07-31T05:37:31.948Z,61.75
2018-07-31T05:39:58.834Z,62.41
2018-07-31T05:42:25.712Z,60.24
2018-07-31T05:44:52.616Z,60.21
2018-07-31T05:47:19.505Z,61.08
2018-07-31T05:49:46.424Z,62.04
2018-07-31T05:52:13.304Z,58.99
2018-07-31T05:54:40.209Z,59.40
2018-07-31T05:57:07.096Z,57.89
2018-07-31T05:59:33.972Z,55.89
2018-07-31T06:02:00.891Z,55.90
2018-07-31T06:04:27.773Z,54.78
2018-07-31T06:06:54.650Z,55.01
2018-07-31T06:09:21.593Z,55.54
2018-07-31T06:11:48.488Z,54.55
2018-07-31T06:14:15.444Z,54.18
2018-07-31T06:16:42.324Z,52.58
2018-07-31T06:19:09.380Z,52.91
2018-07-31T06:21:36.630Z,52.48
2018-07-31T06:24:03.528Z,51.32
2018-07-31T06:26:30.413Z,52.06
2018-07-31T06:28:57.320Z,51.71
2018-07-31T06:31:24.242Z,50.09
2018-07-31T06:33:51.137Z,46.29
2018-07-31T06:36:18.088Z,47.32
2018-07-31T06:38:44.981Z,48.07
2018-07-31T06:41:11.884Z,48.27
2018-07-31T06:43:38.760Z,46.12
2018-07-31T06:46:05.663Z,48.13
2018-07-31T06:48:32.568Z,46.35
2018-07-31T06:50:59.468Z,46.36
2018-07-31T06:53:26.364Z,46.90
2018-07-31T06:55:53.271Z,46.48
2018-07-31T06:58:20.177Z,45.36
2018-07-31T07:00:47.077Z,44.37
2018-07-31T07:03:13.969Z,44.46
2018-07-31T07:05:40.850Z,45.30
2018-07-31T07:08:10.753Z,45.65
2018-07-31T07:10:37.748Z,44.84
2018-07-31T07:13:04.664Z,44.38
2018-07-31T07:15:31.585Z,44.06
2018-07-31T07:17:58.482Z,44.66
2018-07-31T07:20:25.424Z,44.25
2018-07-31T07:22:52.331Z,45.38
2018-07-31T07:25:19.216Z,44.29
2018-07-31T07:27:46.168Z,43.58
2018-07-31T07:30:13.009Z,44.29
2018-07-31T07:32:39.888Z,43.86
2018-07-31T07:35:07.842Z,42.01
2018-07-31T07:37:34.724Z,43.46
2018-07-31T07:40:01.647Z,43.02
2018-07-31T07:42:28.537Z,42.83
2018-07-31T07:44:55.410Z,43.14
2018-07-31T07:47:22.300Z,44.92
2018-07-31T07:49:49.201Z,44.43
2018-07-31T07:52:16.092Z,42.28
2018-07-31T07:54:43.077Z,41.46
2018-07-31T07:57:09.993Z,43.62
2018-07-31T07:59:37.320Z,43.79
2018-07-31T08:02:04.230Z,41.00
2018-07-31T08:04:31.972Z,41.72
2018-07-31T08:06:58.895Z,41.05
2018-07-31T08:09:25.788Z,39.67
2018-07-31T08:11:52.700Z,40.07
2018-07-31T08:14:19.621Z,38.87
2018-07-31T08:16:46.525Z,41.33
2018-07-31T08:19:13.423Z,38.33
2018-07-31T08:21:40.323Z,39.76
2018-07-31T08:24:07.204Z,39.08
2018-07-31T08:26:34.280Z,39.37
2018-07-31T08:29:01.167Z,38.66
2018-07-31T08:31:28.057Z,38.77
2018-07-31T08:33:54.952Z,38.95
2018-07-31T08:36:21.852Z,38.52
2018-07-31T08:38:48.774Z,38.71
2018-07-31T08:41:15.688Z,38.96
2018-07-31T08:43:42.600Z,39.00
2018-07-31T08:46:09.564Z,39.85
2018-07-31T08:48:40.199Z,40.06
2018-07-31T08:51:08.133Z,38.13
2018-07-31T08:53:36.089Z,37.61
2018-07-31T08:56:03.096Z,37.70
2018-07-31T08:58:42.548Z,36.74
2018-07-31T09:01:09.483Z,38.07
2018-07-31T09:03:36.444Z,39.39
2018-07-31T09:06:03.823Z,38.74
2018-07-31T09:08:31.568Z,39.46
2018-07-31T09:10:58.344Z,37.07
2018-07-31T09:13:33.129Z,38.62
2018-07-31T09:16:00.010Z,37.98
2018-07-31T09:18:26.914Z,37.51
2018-07-31T09:20:53.977Z,38.15
2018-07-31T09:23:20.925Z,36.21
2018-07-31T09:25:48.540Z,36.44
2018-07-31T09:28:16.857Z,35.76
2018-07-31T09:30:49.775Z,35.08
2018-07-31T09:33:16.620Z,34.63
2018-07-31T09:35:44.543Z,35.07
2018-07-31T09:38:11.631Z,33.25
2018-07-31T09:40:39.193Z,32.98
2018-07-31T09:43:06.025Z,34.70
2018-07-31T09:45:32.916Z,33.97
2018-07-31T09:47:59.879Z,32.79
2018-07-31T09:50:26.879Z,32.82
2018-07-31T09:52:53.897Z,31.73
2018-07-31T09:55:20.788Z,33.90
2018-07-31T09:57:47.689Z,33.36
2018-07-31T10:00:17.924Z,31.06
2018-07-31T10:02:44.980Z,31.46
2018-07-31T10:05:11.968Z,31.19
2018-07-31T10:07:38.876Z,29.78
2018-07-31T10:10:05.770Z,30.18
2018-07-31T10:12:32.686Z,30.14
2018-07-31T10:14:59.569Z,30.50
2018-07-31T10:17:26.493Z,32.08
2018-07-31T10:19:53.428Z,30.28
2018-07-31T10:22:20.341Z,31.64
2018-07-31T10:24:47.244Z,30.62
2018-07-31T10:27:14.145Z,30.88
2018-07-31T10:29:41.088Z,30.55
2018-07-31T10:32:08.017Z,29.35
2018-07-31T10:34:34.924Z,29.72
2018-07-31T10:37:01.821Z,29.72
2018-07-31T10:39:28.751Z,30.92
2018-07-31T10:41:55.681Z,29.30
2018-07-31T10:44:22.631Z,28.99
2018-07-31T10:46:49.520Z,31.41
2018-07-31T10:49:16.429Z,30.89
2018-07-31T10:51:44.114Z,29.30
2018-07-31T10:54:11.485Z,30.92
2018-07-31T10:56:39.535Z,30.07
2018-07-31T10:59:07.336Z,29.65
2018-07-31T11:01:34.290Z,28.23
2018-07-31T11:04:01.344Z,27.93
2018-07-31T11:06:28.209Z,25.99
2018-07-31T11:08:55.126Z,25.14
2018-07-31T11:11:22.135Z,24.86
2018-07-31T11:13:49.056Z,25.96
2018-07-31T11:16:16.033Z,25.69
2018-07-31T11:18:43.604Z,25.48
2018-07-31T11:21:10.609Z,25.94
2018-07-31T11:23:37.536Z,27.24
2018-07-31T11:26:04.674Z,26.44
2018-07-31T11:28:31.631Z,26.89
2018-07-31T11:30:58.648Z,26.67
2018-07-31T11:33:26.661Z,28.03
2018-07-31T11:35:53.640Z,26.13
2018-07-31T11:38:21.215Z,27.80
2018-07-31T11:40:48.716Z,30.05
2018-07-31T11:43:15.634Z,30.34
2018-07-31T11:45:42.661Z,27.44
2018-07-31T11:48:09.550Z,28.24
2018-07-31T11:50:36.597Z,27.21
2018-07-31T11:53:03.525Z,26.56
2018-07-31T11:55:30.523Z,26.36
2018-07-31T11:57:57.440Z,26.86
2018-07-31T12:00:25.549Z,24.45
2018-07-31T12:02:52.592Z,24.86
2018-07-31T12:05:19.609Z,26.05
2018-07-31T12:07:46.570Z,26.01
2018-07-31T12:10:13.546Z,25.74
2018-07-31T12:12:40.592Z,26.26
2018-07-31T12:15:07.551Z,24.99
2018-07-31T12:17:35.521Z,25.63
2018-07-31T12:20:02.579Z,25.48
2018-07-31T12:22:29.579Z,25.73
2018-07-31T12:24:56.517Z,25.37
2018-07-31T12:27:23.528Z,26.28
2018-07-31T12:29:50.541Z,28.02
2018-07-31T12:32:17.509Z,27.20
2018-07-31T12:34:44.464Z,26.66
2018-07-31T12:37:11.501Z,28.03
2018-07-31T12:39:38.504Z,27.46
2018-07-31T12:42:05.390Z,26.37
2018-07-31T12:44:32.327Z,27.44
2018-07-31T12:46:59.341Z,26.07
2018-07-31T12:49:26.249Z,25.82
2018-07-31T12:51:53.217Z,25.94
2018-07-31T12:54:20.137Z,25.43
2018-07-31T12:56:47.076Z,24.88
2018-07-31T12:59:13.977Z,25.84
2018-07-31T13:01:40.864Z,26.00
2018-07-31T13:04:08.849Z,28.59
2018-07-31T13:06:35.854Z,27.38
2018-07-31T13:09:02.998Z,25.97
2018-07-31T13:11:29.890Z,25.18
2018-07-31T13:13:56.784Z,25.08
2018-07-31T13:16:23.688Z,24.33
2018-07-31T13:18:52.606Z,24.71
2018-07-31T13:21:19.497Z,23.81
2018-07-31T13:23:46.415Z,24.41
2018-07-31T13:26:13.329Z,27.34
2018-07-31T13:28:40.232Z,28.02
2018-07-31T13:31:07.139Z,26.69
2018-07-31T13:33:34.036Z,26.67
2018-07-31T13:36:01.101Z,26.95
2018-07-31T13:38:28.021Z,27.99
2018-07-31T13:40:54.909Z,25.27
2018-07-31T13:43:21.838Z,25.78
2018-07-31T13:45:48.696Z,25.64
2018-07-31T13:48:15.607Z,25.60
2018-07-31T13:50:43.554Z,25.81
2018-07-31T13:53:10.460Z,25.00
2018-07-31T13:55:37.361Z,25.87
2018-07-31T13:58:04.301Z,25.98
2018-07-31T14:00:31.197Z,27.06
2018-07-31T14:02:58.100Z,26.80
2018-07-31T14:05:25.011Z,27.02
2018-07-31T14:07:51.912Z,25.61
2018-07-31T14:10:18.802Z,26.84
2018-07-31T14:12:45.734Z,26.75
2018-07-31T14:15:12.596Z,25.97
2018-07-31T14:17:39.527Z,26.20
2018-07-31T14:20:06.394Z,27.10
2018-07-31T14:22:33.329Z,27.32
2018-07-31T14:25:00.237Z,29.45
2018-07-31T14:27:27.135Z,29.22
2018-07-31T14:29:54.028Z,27.62
2018-07-31T14:32:20.921Z,28.51
2018-07-31T14:34:47.845Z,26.18
2018-07-31T14:37:14.766Z,27.09
2018-07-31T14:39:41.665Z,24.89
2018-07-31T14:42:08.589Z,25.62
2018-07-31T14:44:35.476Z,26.45
2018-07-31T14:47:02.381Z,26.32
2018-07-31T14:49:29.260Z,25.70
2018-07-31T14:51:56.172Z,27.28
2018-07-31T14:54:23.077Z,26.29
2018-07-31T14:56:49.984Z,26.49
2018-07-31T14:59:16.887Z,26.23
2018-07-31T15:01:43.798Z,26.57
2018-07-31T15:04:10.691Z,28.00
2018-07-31T15:06:37.609Z,27.85
2018-07-31T15:09:07.251Z,27.55
2018-07-31T15:11:34.164Z,26.86
2018-07-31T15:14:01.076Z,27.44
2018-07-31T15:16:27.993Z,27.40
2018-07-31T15:18:54.902Z,27.58
2018-07-31T15:21:21.881Z,26.92
2018-07-31T15:23:48.788Z,27.33
2018-07-31T15:26:15.669Z,27.91
2018-07-31T15:28:42.584Z,28.60
2018-07-31T15:31:09.476Z,28.09
2018-07-31T15:33:36.387Z,27.98
2018-07-31T15:36:03.304Z,27.17
2018-07-31T15:38:30.199Z,27.67
2018-07-31T15:40:57.100Z,27.93
2018-07-31T15:43:27.038Z,29.67
2018-07-31T15:45:54.920Z,30.17
2018-07-31T15:48:21.816Z,29.64
2018-07-31T15:50:48.716Z,29.87
2018-07-31T15:53:15.654Z,29.77
2018-07-31T15:55:42.580Z,26.72
2018-07-31T15:58:09.546Z,27.01
2018-07-31T16:00:36.404Z,26.45
2018-07-31T16:03:03.388Z,25.90
2018-07-31T16:05:30.279Z,25.86
2018-07-31T16:07:57.166Z,25.88
2018-07-31T16:10:24.184Z,28.30
2018-07-31T16:12:51.095Z,25.94
2018-07-31T16:15:18.011Z,26.19
2018-07-31T16:17:45.106Z,24.06
2018-07-31T16:20:12.016Z,23.59
2018-07-31T16:22:38.887Z,23.96
2018-07-31T16:25:06.045Z,23.18
2018-07-31T16:27:32.944Z,22.02
2018-07-31T16:29:59.944Z,22.56
2018-07-31T16:32:26.885Z,22.24
2018-07-31T16:34:53.791Z,21.59
2018-07-31T16:37:20.717Z,21.95
2018-07-31T16:39:47.622Z,22.31
2018-07-31T16:42:14.508Z,22.20
2018-07-31T16:44:41.404Z,21.90
2018-07-31T16:47:08.346Z,22.45
2018-07-31T16:49:38.288Z,20.95
2018-07-31T16:52:05.244Z,22.35
2018-07-31T16:54:32.171Z,21.70
2018-07-31T16:56:59.084Z,21.89
2018-07-31T16:59:26.016Z,22.46
2018-07-31T17:01:54.005Z,20.74
2018-07-31T17:04:24.979Z,20.92
2018-07-31T17:06:51.879Z,20.78
2018-07-31T17:09:19.931Z,19.86
2018-07-31T17:11:46.941Z,20.43
2018-07-31T17:14:13.988Z,19.28
2018-07-31T17:16:40.947Z,20.23
2018-07-31T17:19:07.896Z,19.54
2018-07-31T17:21:38.607Z,20.38
2018-07-31T17:24:08.441Z,19.67
2018-07-31T17:26:36.502Z,20.37
2018-07-31T17:29:03.459Z,20.86
2018-07-31T17:31:30.461Z,22.98
2018-07-31T17:33:57.445Z,23.82
2018-07-31T17:36:24.761Z,24.70
2018-07-31T17:38:51.780Z,24.18
2018-07-31T17:41:18.743Z,24.82
2018-07-31T17:43:46.427Z,24.04
2018-07-31T17:46:14.428Z,23.92
2018-07-31T17:48:44.424Z,23.71
2018-07-31T17:51:12.477Z,23.76
2018-07-31T17:53:40.428Z,24.55
2018-07-31T17:56:08.980Z,26.18
2018-07-31T17:58:35.949Z,25.91
2018-07-31T18:01:03.939Z,27.63
2018-07-31T18:03:31.561Z,26.33
2018-07-31T18:05:59.508Z,25.13
2018-07-31T18:08:26.492Z,27.21
2018-07-31T18:10:53.466Z,29.28
2018-07-31T18:13:21.468Z,31.86
2018-07-31T18:15:48.719Z,32.42
2018-07-31T18:18:15.755Z,35.54
2018-07-31T18:20:42.784Z,36.96
2018-07-31T18:23:14.356Z,36.15
2018-07-31T18:25:44.355Z,34.82
2018-07-31T18:28:12.375Z,37.76
2018-07-31T18:30:40.391Z,36.13
2018-07-31T18:33:09.000Z,38.83
2018-07-31T18:35:46.466Z,37.80
2018-07-31T18:38:21.483Z,39.95
2018-07-31T18:40:49.440Z,40.93
2018-07-31T18:43:21.289Z,43.36
2018-07-31T18:45:48.400Z,43.88
2018-07-31T18:48:17.509Z,42.26
2018-07-31T18:50:44.381Z,44.35
2018-07-31T18:53:11.306Z,43.38
2018-07-31T18:55:38.188Z,42.22
2018-07-31T18:58:06.256Z,46.24
2018-07-31T19:00:33.216Z,44.59
2018-07-31T19:03:03.293Z,43.00
2018-07-31T19:05:30.317Z,44.12
2018-07-31T19:07:57.232Z,41.99
2018-07-31T19:10:26.025Z,44.83
2018-07-31T19:12:52.972Z,44.72
2018-07-31T19:15:20.212Z,45.00
2018-07-31T19:17:47.148Z,44.85
2018-07-31T19:20:14.075Z,45.90
2018-07-31T19:22:41.003Z,45.86
2018-07-31T19:25:07.942Z,45.83
2018-07-31T19:27:34.952Z,46.56
2018-07-31T19:30:01.902Z,45.88
2018-07-31T19:32:28.884Z,45.67
2018-07-31T19:34:55.827Z,46.15
2018-07-31T19:37:22.748Z,46.64
2018-07-31T19:39:49.720Z,47.81
2018-07-31T19:42:16.670Z,47.70
2018-07-31T19:44:43.543Z,47.39
2018-07-31T19:47:10.526Z,48.44
2018-07-31T19:49:37.450Z,48.80
2018-07-31T19:52:04.801Z,48.72
2018-07-31T19:54:31.704Z,49.38
2018-07-31T19:56:58.620Z,48.00
2018-07-31T19:59:25.525Z,48.72
2018-07-31T20:01:52.440Z,47.88
2018-07-31T20:04:19.500Z,49.40
2018-07-31T20:06:46.405Z,48.85
2018-07-31T20:09:19.138Z,48.67
2018-07-31T20:11:46.045Z,50.14
2018-07-31T20:14:13.004Z,49.12
2018-07-31T20:16:39.941Z,49.68
2018-07-31T20:19:06.829Z,48.09
2018-07-31T20:21:33.841Z,50.34
2018-07-31T20:24:00.792Z,50.73
2018-07-31T20:26:27.812Z,51.21
2018-07-31T20:28:54.817Z,52.03
2018-07-31T20:31:21.732Z,50.96
2018-07-31T20:33:48.648Z,51.43
2018-07-31T20:36:15.556Z,52.39
2018-07-31T20:38:42.466Z,52.24
2018-07-31T20:41:09.376Z,52.16
2018-07-31T20:43:36.289Z,52.27
2018-07-31T20:46:03.352Z,52.30
2018-07-31T20:48:30.264Z,52.58
2018-07-31T20:50:57.154Z,53.57
2018-07-31T20:53:24.068Z,52.69
2018-07-31T20:55:51.052Z,51.95
2018-07-31T20:58:17.995Z,52.30
2018-07-31T21:00:44.884Z,51.00
2018-07-31T21:03:11.775Z,51.20
2018-07-31T21:05:38.659Z,51.26
2018-07-31T21:08:05.562Z,53.30
2018-07-31T21:10:32.451Z,53.18
2018-07-31T21:12:59.332Z,53.82
2018-07-31T21:15:26.230Z,54.60
2018-07-31T21:17:53.144Z,54.71
2018-07-31T21:20:20.040Z,55.26
2018-07-31T21:22:46.937Z,55.18
2018-07-31T21:25:13.898Z,54.85
2018-07-31T21:27:40.804Z,54.75
2018-07-31T21:30:07.925Z,54.83
2018-07-31T21:32:34.864Z,54.63
2018-07-31T21:35:01.773Z,55.72
2018-07-31T21:37:28.656Z,56.42
2018-07-31T21:39:55.548Z,54.55
2018-07-31T21:42:22.437Z,55.18
2018-07-31T21:44:50.328Z,53.47
2018-07-31T21:47:17.209Z,53.48
2018-07-31T21:49:44.131Z,53.43
2018-07-31T21:52:11.068Z,53.51
2018-07-31T21:54:38.244Z,52.77
2018-07-31T21:57:05.136Z,53.06
2018-07-31T21:59:32.068Z,52.32
2018-07-31T22:01:59.050Z,52.55
2018-07-31T22:04:26.036Z,53.27
2018-07-31T22:06:52.916Z,53.33
2018-07-31T22:09:25.642Z,54.01
2018-07-31T22:11:53.496Z,53.94
2018-07-31T22:14:20.385Z,54.71
2018-07-31T22:16:47.300Z,53.47
2018-07-31T22:19:14.187Z,54.63
2018-07-31T22:21:41.067Z,56.13
2018-07-31T22:24:07.952Z,56.10
2018-07-31T22:26:34.832Z,57.21
2018-07-31T22:29:01.720Z,56.01
2018-07-31T22:31:28.637Z,55.88
2018-07-31T22:33:55.516Z,54.83
2018-07-31T22:36:22.424Z,54.99
2018-07-31T22:38:49.328Z,54.26
2018-07-31T22:41:16.255Z,55.85
2018-07-31T22:43:43.200Z,55.30
2018-07-31T22:46:10.046Z,55.22
2018-07-31T22:48:36.933Z,54.53
2018-07-31T22:51:03.863Z,54.14
2018-07-31T22:53:30.816Z,55.03
2018-07-31T22:55:57.697Z,55.49
2018-07-31T22:58:24.604Z,56.14
2018-07-31T23:00:51.480Z,56.65
2018-07-31T23:03:18.372Z,56.90
2018-07-31T23:05:45.271Z,57.95
2018-07-31T23:08:13.028Z,57.87
2018-07-31T23:10:39.912Z,57.33
2018-07-31T23:13:06.800Z,56.56
2018-07-31T23:15:33.672Z,56.75
2018-07-31T23:18:00.572Z,56.45
2018-07-31T23:20:27.465Z,56.97
2018-07-31T23:22:54.404Z,56.62
2018-07-31T23:25:21.301Z,57.18
2018-07-31T23:27:48.213Z,57.83
2018-07-31T23:30:15.099Z,57.74
2018-07-31T23:32:42.120Z,57.12
2018-07-31T23:35:09.039Z,56.53
2018-07-31T23:37:36.937Z,57.63
2018-07-31T23:40:04.694Z,58.13
2018-07-31T23:42:32.018Z,58.31
2018-07-31T23:44:59.006Z,57.65
2018-07-31T23:47:26.930Z,57.33
2018-07-31T23:49:53.812Z,57.26
2018-07-31T23:52:20.738Z,57.28
2018-07-31T23:54:47.755Z,57.00
2018-07-31T23:57:14.814Z,58.37
2018-07-31T23:59:41.700Z,57.11
